Time;durP1;ratioP1;P1;durP2;ratioP2;P2;SDS_P1;SDS_P2;PMS_P1;PMS_P2;Temp;Humidity;BMP_temperature;BMP_pressure;BME280_temperature;BME280_humidity;BME280_pressure;Samples;Min_cycle;Max_cycle;Signal;HPM_P1;HPM_P2
2023/05/22 00:00:07;;;;;;;41.75;12.77;;;;;;;10.64;100.00;101768.66;5034837;28;20081;-74
2023/05/22 00:02:37;;;;;;;33.35;12.10;;;;;;;10.59;100.00;101761.03;5032863;28;20030;-75
2023/05/22 00:05:04;;;;;;;36.72;11.77;;;;;;;10.58;100.00;101768.16;5034516;28;20453;-74
2023/05/22 00:07:29;;;;;;;45.17;11.80;;;;;;;10.58;100.00;101767.31;5034283;28;20091;-75
2023/05/22 00:09:55;;;;;;;32.72;12.52;;;;;;;10.57;100.00;101769.13;5034382;28;20041;-75
2023/05/22 00:12:20;;;;;;;33.70;12.45;;;;;;;10.57;100.00;101761.13;5034540;28;20029;-74
2023/05/22 00:14:46;;;;;;;30.95;12.80;;;;;;;10.57;100.00;101765.63;5032457;28;20060;-74
2023/05/22 00:17:13;;;;;;;35.05;13.52;;;;;;;10.55;100.00;101756.88;5034350;28;20075;-74
2023/05/22 00:19:39;;;;;;;30.55;13.10;;;;;;;10.55;100.00;101754.22;5034234;28;20100;-75
2023/05/22 00:22:05;;;;;;;41.33;13.95;;;;;;;10.53;100.00;101750.84;5034602;28;20106;-74
2023/05/22 00:24:30;;;;;;;36.28;13.20;;;;;;;10.52;100.00;101746.47;5033598;28;20351;-75
2023/05/22 00:26:56;;;;;;;33.65;14.80;;;;;;;10.51;100.00;101747.44;5034313;28;20382;-74
2023/05/22 00:29:21;;;;;;;36.55;14.05;;;;;;;10.50;100.00;101746.59;5034270;28;20041;-74
2023/05/22 00:31:47;;;;;;;39.53;15.15;;;;;;;10.50;100.00;101746.59;5033893;28;20033;-74
2023/05/22 00:34:12;;;;;;;39.58;15.02;;;;;;;10.47;100.00;101744.16;5034397;28;20034;-73
2023/05/22 00:36:38;;;;;;;41.90;15.18;;;;;;;10.48;100.00;101747.66;5033892;28;20042;-74
2023/05/22 00:39:03;;;;;;;35.85;13.90;;;;;;;10.46;100.00;101754.94;5034050;28;20120;-72
2023/05/22 00:41:32;;;;;;;40.60;14.38;;;;;;;10.42;100.00;101754.31;5031868;28;20060;-74
2023/05/22 00:43:58;;;;;;;36.42;14.77;;;;;;;10.40;100.00;101756.25;5033735;28;20036;-74
2023/05/22 00:46:23;;;;;;;38.53;14.50;;;;;;;10.37;100.00;101759.97;5033541;28;20405;-74
2023/05/22 00:48:51;;;;;;;43.03;15.10;;;;;;;10.35;100.00;101761.06;5033282;28;20123;-74
2023/05/22 00:51:18;;;;;;;40.75;14.40;;;;;;;10.34;100.00;101767.34;5033733;28;20033;-74
2023/05/22 00:53:45;;;;;;;43.65;15.65;;;;;;;10.33;100.00;101761.19;5033465;28;20135;-74
2023/05/22 00:56:11;;;;;;;48.35;15.70;;;;;;;10.34;100.00;101762.84;5033349;28;20458;-74
2023/05/22 00:58:37;;;;;;;37.70;15.38;;;;;;;10.35;100.00;101761.06;5033101;28;20033;-74
2023/05/22 01:01:04;;;;;;;55.03;15.77;;;;;;;10.38;100.00;101766.16;5033385;28;20025;-74
2023/05/22 01:03:30;;;;;;;36.85;14.88;;;;;;;10.43;100.00;101765.81;5033210;28;20079;-74
2023/05/22 01:05:56;;;;;;;44.58;16.65;;;;;;;10.48;100.00;101761.84;5032822;28;20038;-74
2023/05/22 01:08:21;;;;;;;37.85;16.38;;;;;;;10.57;100.00;101760.31;5033125;28;20382;-74
2023/05/22 01:10:51;;;;;;;45.13;16.85;;;;;;;10.66;100.00;101756.94;5032210;28;20091;-74
2023/05/22 01:13:41;;;;;;;40.08;15.63;;;;;;;10.75;100.00;101753.56;5033117;28;20116;-74
2023/05/22 01:16:36;;;;;;;43.90;15.77;;;;;;;10.84;100.00;101749.34;5032615;28;20103;-74
2023/05/22 01:19:20;;;;;;;39.97;14.75;;;;;;;10.89;100.00;101736.50;5032046;28;20031;-74
2023/05/22 01:22:23;;;;;;;43.05;14.57;;;;;;;10.91;100.00;101729.28;5032263;28;20068;-74
2023/05/22 01:25:19;;;;;;;31.77;13.18;;;;;;;10.92;100.00;101736.28;5032269;28;20087;-74
2023/05/22 01:28:07;;;;;;;28.88;13.82;;;;;;;10.88;100.00;101728.66;5032317;28;20044;-73
2023/05/22 01:30:57;;;;;;;38.70;14.18;;;;;;;10.84;100.00;101719.19;5032814;28;20032;-74
2023/05/22 01:33:26;;;;;;;37.22;14.23;;;;;;;10.78;100.00;101715.22;5033200;28;20034;-74
2023/05/22 01:35:56;;;;;;;35.45;14.23;;;;;;;10.72;100.00;101727.19;5031184;28;20037;-75
2023/05/22 01:38:21;;;;;;;39.40;14.80;;;;;;;10.67;100.00;101729.34;5032579;28;20033;-74
2023/05/22 01:40:47;;;;;;;31.67;13.60;;;;;;;10.64;100.00;101718.91;5031791;28;20216;-74
2023/05/22 01:43:14;;;;;;;33.95;14.00;;;;;;;10.59;100.00;101719.28;5032155;28;20057;-74
2023/05/22 01:45:39;;;;;;;41.88;15.52;;;;;;;10.60;100.00;101709.50;5032106;28;20068;-74
2023/05/22 01:48:05;;;;;;;40.00;14.18;;;;;;;10.59;100.00;101703.31;5032736;28;20116;-74
2023/05/22 01:50:30;;;;;;;41.00;14.95;;;;;;;10.59;100.00;101692.66;5032687;28;20033;-74
2023/05/22 01:53:18;;;;;;;41.63;14.70;;;;;;;10.58;100.00;101688.34;5032174;28;20043;-74
2023/05/22 01:56:04;;;;;;;37.33;15.77;;;;;;;10.58;100.00;101683.00;5031673;28;20389;-74
2023/05/22 01:58:35;;;;;;;38.15;15.70;;;;;;;10.57;100.00;101686.63;5032280;28;20029;-74
2023/05/22 02:01:02;;;;;;;47.78;16.45;;;;;;;10.57;100.00;101685.78;5032273;28;20255;-74
2023/05/22 02:03:30;;;;;;;42.55;15.05;;;;;;;10.56;100.00;101679.59;5032408;28;20025;-74
2023/05/22 02:06:00;;;;;;;41.33;15.32;;;;;;;10.55;100.00;101669.94;5032112;28;20061;-74
2023/05/22 02:08:26;;;;;;;41.72;14.95;;;;;;;10.56;100.00;101665.47;5032185;28;20030;-73
2023/05/22 02:10:55;;;;;;;49.35;17.08;;;;;;;10.56;100.00;101668.13;5031957;28;20029;-74
2023/05/22 02:13:22;;;;;;;46.72;16.05;;;;;;;10.56;100.00;101676.09;5032400;28;20037;-74
2023/05/22 02:15:48;;;;;;;43.92;15.52;;;;;;;10.56;100.00;101666.28;5031778;28;20057;-75
2023/05/22 02:18:14;;;;;;;49.65;16.98;;;;;;;10.57;100.00;101662.69;5030869;28;20510;-74
2023/05/22 02:20:40;;;;;;;52.30;16.92;;;;;;;10.61;100.00;101651.78;5031017;28;20061;-74
2023/05/22 02:23:06;;;;;;;39.97;16.33;;;;;;;10.57;100.00;101661.84;5032022;28;20067;-74
2023/05/22 02:25:31;;;;;;;43.70;17.25;;;;;;;10.56;100.00;101666.28;5032225;28;20120;-74
2023/05/22 02:27:56;;;;;;;47.90;18.15;;;;;;;10.58;100.00;101667.03;5031629;28;20038;-74
2023/05/22 02:30:22;;;;;;;40.83;16.95;;;;;;;10.58;100.00;101655.53;5030504;28;20461;-74
2023/05/22 02:32:47;;;;;;;41.58;15.98;;;;;;;10.58;100.00;101639.56;5031920;28;20087;-75
2023/05/22 02:35:13;;;;;;;49.92;17.05;;;;;;;10.59;100.00;101641.28;5031937;28;20034;-74
2023/05/22 02:37:38;;;;;;;45.60;16.05;;;;;;;10.59;100.00;101631.47;5031778;28;20052;-75
2023/05/22 02:40:07;;;;;;;39.83;16.30;;;;;;;10.61;100.00;101633.16;5031854;28;20076;-74
2023/05/22 02:42:33;;;;;;;55.50;16.92;;;;;;;10.62;100.00;101643.69;5031886;28;20412;-74
2023/05/22 02:44:58;;;;;;;42.13;16.73;;;;;;;10.62;100.00;101640.19;5031463;28;20454;-75
2023/05/22 02:47:24;;;;;;;53.42;17.55;;;;;;;10.62;100.00;101637.53;5032056;28;20040;-75
2023/05/22 02:49:49;;;;;;;47.35;17.73;;;;;;;10.63;100.00;101639.19;5031761;28;20037;-75
2023/05/22 02:52:15;;;;;;;49.33;18.48;;;;;;;10.63;100.00;101644.53;5032257;28;20145;-75
2023/05/22 02:54:40;;;;;;;47.33;17.48;;;;;;;10.63;100.00;101640.06;5032029;28;20480;-75
2023/05/22 02:57:06;;;;;;;48.85;17.38;;;;;;;10.63;100.00;101647.19;5031278;28;20037;-75
2023/05/22 02:59:31;;;;;;;49.20;18.02;;;;;;;10.62;100.00;101642.84;5031945;28;20029;-76
2023/05/22 03:01:57;;;;;;;54.90;18.55;;;;;;;10.62;100.00;101653.50;5031426;28;20025;-76
2023/05/22 03:04:23;;;;;;;43.13;18.25;;;;;;;10.58;100.00;101653.75;5033014;28;20033;-73
2023/05/22 03:06:49;;;;;;;41.28;17.63;;;;;;;10.56;100.00;101657.47;5035812;28;20359;-74
2023/05/22 03:09:15;;;;;;;38.67;17.50;;;;;;;10.54;100.00;101662.09;5035682;28;20033;-74
2023/05/22 03:11:40;;;;;;;44.95;16.98;;;;;;;10.52;100.00;101664.00;5035684;28;20075;-74
2023/05/22 03:14:07;;;;;;;48.08;16.55;;;;;;;10.52;100.00;101664.84;5035243;28;20068;-74
2023/05/22 03:16:33;;;;;;;50.45;17.60;;;;;;;10.51;100.00;101656.97;5035806;28;20085;-74
2023/05/22 03:19:12;;;;;;;48.45;16.80;;;;;;;10.47;100.00;101655.53;5035146;28;20048;-74
2023/05/22 03:21:38;;;;;;;47.28;17.33;;;;;;;10.46;100.00;101651.16;5035581;28;20053;-74
2023/05/22 03:24:04;;;;;;;47.08;16.52;;;;;;;10.47;100.00;101639.56;5035032;28;20037;-74
2023/05/22 03:26:29;;;;;;;36.75;14.48;;;;;;;10.46;100.00;101648.50;5035407;28;20083;-74
2023/05/22 03:28:56;;;;;;;32.10;15.02;;;;;;;10.44;100.00;101645.13;5034949;28;20156;-74
2023/05/22 03:31:23;;;;;;;37.30;15.30;;;;;;;10.41;100.00;101656.84;5035371;28;20029;-74
2023/05/22 03:33:48;;;;;;;44.38;16.55;;;;;;;10.41;100.00;101651.53;5034107;28;20088;-74
2023/05/22 03:36:14;;;;;;;37.55;16.42;;;;;;;10.40;100.00;101639.19;5034815;28;20041;-74
2023/05/22 03:38:40;;;;;;;44.47;15.70;;;;;;;10.40;100.00;101640.03;5035142;28;20120;-75
2023/05/22 03:41:06;;;;;;;43.13;15.70;;;;;;;10.41;100.00;101631.06;5034473;28;20129;-75
2023/05/22 03:43:32;;;;;;;59.17;17.60;;;;;;;10.44;100.00;101645.13;5033725;28;20040;-74
2023/05/22 03:45:58;;;;;;;42.70;15.90;;;;;;;10.42;100.00;101637.25;5034478;28;20379;-75
2023/05/22 03:48:23;;;;;;;45.47;15.90;;;;;;;10.41;100.00;101646.19;5035044;28;20505;-74
2023/05/22 03:50:49;;;;;;;48.15;15.63;;;;;;;10.37;100.00;101650.06;5034986;28;20029;-75
2023/05/22 03:53:15;;;;;;;45.38;15.32;;;;;;;10.32;100.00;101646.88;5034578;28;20025;-75
2023/05/22 03:55:40;;;;;;;33.13;14.07;;;;;;;10.29;100.00;101647.97;5034919;28;20132;-75
2023/05/22 03:58:06;;;;;;;48.72;16.02;;;;;;;10.28;100.00;101656.91;5034201;28;20410;-75
2023/05/22 04:00:32;;;;;;;44.97;15.95;;;;;;;10.29;100.00;101649.78;5034297;28;20033;-74
2023/05/22 04:02:57;;;;;;;37.17;15.73;;;;;;;10.30;100.00;101652.31;5034263;28;20040;-75
2023/05/22 04:05:23;;;;;;;52.35;16.13;;;;;;;10.30;100.00;101652.31;5034646;28;20454;-74
2023/05/22 04:07:48;;;;;;;39.80;15.15;;;;;;;10.29;100.00;101647.13;5034682;28;20033;-74
2023/05/22 04:10:14;;;;;;;54.25;17.23;;;;;;;10.30;100.00;101640.81;5034244;28;20206;-74
2023/05/22 04:12:39;;;;;;;40.25;16.67;;;;;;;10.33;100.00;101651.22;5034741;28;20135;-73
2023/05/22 04:15:06;;;;;;;41.65;16.27;;;;;;;10.34;100.00;101651.13;5031365;28;20058;-73
2023/05/22 04:17:32;;;;;;;45.65;17.00;;;;;;;10.36;100.00;101654.53;5033727;28;20138;-74
2023/05/22 04:19:59;;;;;;;45.08;16.70;;;;;;;10.40;100.00;101650.69;5034085;28;20037;-74
2023/05/22 04:22:26;;;;;;;42.55;16.42;;;;;;;10.44;100.00;101650.44;5034453;28;20037;-74
2023/05/22 04:24:51;;;;;;;46.40;16.45;;;;;;;10.47;100.00;101658.19;5033005;28;20048;-74
2023/05/22 04:27:20;;;;;;;50.70;16.27;;;;;;;10.49;100.00;101665.06;5032438;28;20783;-74
2023/05/22 04:29:46;;;;;;;48.00;17.20;;;;;;;10.54;100.00;101656.75;5032988;28;20033;-74
2023/05/22 04:32:11;;;;;;;48.42;17.13;;;;;;;10.58;100.00;101669.69;5033636;28;20044;-74
2023/05/22 04:34:36;;;;;;;49.67;16.80;;;;;;;10.62;100.00;101672.13;5034193;28;20034;-74
2023/05/22 04:37:03;;;;;;;48.33;15.98;;;;;;;10.67;100.00;101661.97;5032373;28;20038;-75
2023/05/22 04:39:30;;;;;;;40.80;16.52;;;;;;;10.72;100.00;101663.28;5034535;28;20065;-73
2023/05/22 04:41:55;;;;;;;44.10;16.73;;;;;;;10.76;100.00;101671.88;5034025;28;20037;-75
2023/05/22 04:44:21;;;;;;;52.40;17.55;;;;;;;10.82;100.00;101666.06;5033648;28;20029;-75
2023/05/22 04:46:47;;;;;;;58.15;18.65;;;;;;;10.86;100.00;101666.69;5033824;28;20493;-74
2023/05/22 04:49:13;;;;;;;52.97;17.20;;;;;;;10.94;100.00;101666.91;5033520;28;20056;-74
2023/05/22 04:51:38;;;;;;;41.50;15.95;;;;;;;10.99;100.00;101658.56;5033468;28;20041;-75
2023/05/22 04:54:04;;;;;;;44.33;16.52;;;;;;;11.04;100.00;101664.38;5033376;28;20121;-74
2023/05/22 04:56:30;;;;;;;49.67;16.50;;;;;;;11.07;100.00;101666.81;5033454;28;20091;-74
2023/05/22 04:58:56;;;;;;;47.25;17.17;;;;;;;11.10;100.00;101667.41;5033615;28;20096;-74
2023/05/22 05:01:21;;;;;;;47.60;17.52;;;;;;;11.13;100.00;101662.81;5033248;28;20461;-74
2023/05/22 05:03:47;;;;;;;53.95;17.83;;;;;;;11.16;100.00;101663.41;5033450;28;20037;-74
2023/05/22 05:06:12;;;;;;;46.97;16.30;;;;;;;11.18;100.00;101679.25;5032999;28;20029;-74
2023/05/22 05:08:38;;;;;;;47.55;17.15;;;;;;;11.22;100.00;101683.38;5033416;28;20465;-74
2023/05/22 05:11:03;;;;;;;53.20;18.38;;;;;;;11.29;100.00;101684.59;5032699;28;20033;-75
2023/05/22 05:13:29;;;;;;;44.17;17.35;;;;;;;11.39;100.00;101682.88;5032186;28;20041;-74
2023/05/22 05:15:56;;;;;;;40.50;16.42;;;;;;;11.51;100.00;101688.16;5033189;28;20049;-75
2023/05/22 05:18:21;;;;;;;50.40;17.17;;;;;;;11.58;100.00;101681.38;5033012;28;20025;-75
2023/05/22 05:20:46;;;;;;;45.13;16.35;;;;;;;11.68;100.00;101689.47;5033363;28;20151;-74
2023/05/22 05:23:12;;;;;;;46.90;16.10;;;;;;;11.75;100.00;101677.34;5031802;28;20040;-75
2023/05/22 05:25:37;;;;;;;48.22;15.90;;;;;;;11.79;100.00;101679.63;5033175;28;20421;-74
2023/05/22 05:28:11;;;;;;;43.65;15.20;;;;;;;11.80;100.00;101683.13;5032901;28;20034;-75
2023/05/22 05:30:40;;;;;;;49.35;15.95;;;;;;;11.83;100.00;101681.06;5032984;28;20183;-75
2023/05/22 05:33:05;;;;;;;40.70;15.80;;;;;;;11.88;100.00;101678.00;5033129;28;20033;-75
2023/05/22 05:35:31;;;;;;;46.97;16.40;;;;;;;11.91;100.00;101683.09;5032720;28;20032;-74
2023/05/22 05:37:57;;;;;;;36.90;14.95;;;;;;;11.96;100.00;101677.41;5032683;28;20064;-73
2023/05/22 05:40:23;;;;;;;41.83;15.63;;;;;;;12.01;100.00;101679.69;5031079;28;20476;-74
2023/05/22 05:42:48;;;;;;;41.15;15.07;;;;;;;12.01;100.00;101679.69;5032916;28;20088;-74
2023/05/22 05:45:14;;;;;;;38.60;15.10;;;;;;;12.04;100.00;101698.13;5032371;28;20030;-74
2023/05/22 05:47:40;;;;;;;34.13;14.63;;;;;;;12.10;100.00;101706.44;5031418;28;20034;-74
2023/05/22 05:50:06;;;;;;;38.03;14.95;;;;;;;12.20;100.00;101706.53;5032888;28;20033;-74
2023/05/22 05:52:32;;;;;;;40.13;13.88;;;;;;;12.35;100.00;101705.22;5032361;28;20048;-75
2023/05/22 05:54:59;;;;;;;37.22;13.57;;;;;;;12.51;100.00;101701.28;5032870;28;20033;-75
2023/05/22 05:57:25;;;;;;;28.35;13.27;;;;;;;12.69;100.00;101698.84;5032217;28;20034;-75
2023/05/22 05:59:50;;;;;;;35.25;14.15;;;;;;;12.85;100.00;101701.88;5031268;28;20029;-75
2023/05/22 06:02:16;;;;;;;35.40;12.60;;;;;;;13.08;100.00;101708.84;5032192;28;20079;-75
2023/05/22 06:04:41;;;;;;;37.65;12.63;;;;;;;13.28;100.00;101707.94;5032534;28;20075;-75
2023/05/22 06:07:07;;;;;;;28.08;12.05;;;;;;;13.49;100.00;101720.44;5032422;28;20483;-74
2023/05/22 06:09:32;;;;;;;30.95;12.93;;;;;;;13.64;100.00;101711.03;5032216;28;20376;-76
2023/05/22 06:11:57;;;;;;;33.20;13.00;;;;;;;13.77;100.00;101723.31;5032470;28;20041;-76
2023/05/22 06:14:23;;;;;;;33.15;12.63;;;;;;;13.88;100.00;101720.50;5031861;28;20109;-76
2023/05/22 06:16:48;;;;;;;29.67;12.48;;;;;;;13.92;100.00;101719.25;5032075;28;20053;-76
2023/05/22 06:19:14;;;;;;;31.38;13.02;;;;;;;13.89;100.00;101712.34;5031700;28;20439;-76
2023/05/22 06:21:39;;;;;;;45.13;14.35;;;;;;;13.86;100.00;101715.28;5032241;28;20047;-74
2023/05/22 06:24:05;;;;;;;34.50;13.40;;;;;;;13.90;100.00;101719.38;5032339;28;20041;-75
2023/05/22 06:26:31;;;;;;;36.50;14.48;;;;;;;13.93;100.00;101715.59;5031783;28;20038;-75
2023/05/22 06:28:56;;;;;;;27.90;12.32;;;;;;;13.98;100.00;101723.19;5032491;28;20069;-74
2023/05/22 06:31:23;;;;;;;35.33;14.07;;;;;;;14.07;100.00;101722.34;5031821;28;20052;-74
2023/05/22 06:33:49;;;;;;;29.25;13.02;;;;;;;14.15;100.00;101718.97;5022361;28;20029;-76
2023/05/22 06:36:15;;;;;;;29.30;12.25;;;;;;;14.21;100.00;101729.97;5009446;28;20042;-76
2023/05/22 06:38:40;;;;;;;32.53;12.50;;;;;;;14.14;100.00;101718.13;5009657;28;20316;-76
2023/05/22 06:41:06;;;;;;;28.45;12.20;;;;;;;14.19;100.00;101726.56;5013500;28;20040;-76
2023/05/22 06:43:32;;;;;;;27.83;11.65;;;;;;;14.31;100.00;101724.59;5013395;28;20037;-74
2023/05/22 06:45:57;;;;;;;30.52;11.75;;;;;;;14.35;100.00;101717.13;5012946;28;20034;-74
2023/05/22 06:48:23;;;;;;;35.00;12.65;;;;;;;14.42;100.00;101723.59;5013162;28;20033;-73
2023/05/22 06:50:48;;;;;;;35.53;12.32;;;;;;;14.48;100.00;101712.34;5013473;28;20521;-74
2023/05/22 06:53:13;;;;;;;30.65;11.98;;;;;;;14.60;100.00;101719.22;5013406;28;20038;-75
2023/05/22 06:55:39;;;;;;;23.88;10.73;;;;;;;14.69;100.00;101714.84;5013132;28;20034;-74
2023/05/22 06:58:04;;;;;;;33.63;12.02;;;;;;;14.79;100.00;101713.00;5013250;28;20045;-74
2023/05/22 07:00:29;;;;;;;26.20;11.43;;;;;;;14.96;100.00;101714.06;5012759;28;20068;-74
2023/05/22 07:02:55;;;;;;;25.23;11.98;;;;;;;15.20;100.00;101703.78;5013185;28;20096;-74
2023/05/22 07:05:20;;;;;;;31.55;10.65;;;;;;;15.58;100.00;101702.72;5012845;28;20120;-73
2023/05/22 07:07:46;;;;;;;28.40;11.10;;;;;;;15.97;100.00;101709.69;5011977;28;20034;-74
2023/05/22 07:10:11;;;;;;;23.50;10.25;;;;;;;16.27;100.00;101710.28;5012800;28;20065;-74
2023/05/22 07:12:36;;;;;;;22.73;10.32;;;;;;;16.45;100.00;101710.25;5012786;28;20470;-75
2023/05/22 07:15:02;;;;;;;33.58;11.07;;;;;;;16.55;100.00;101711.00;5012907;28;20038;-76
2023/05/22 07:17:28;;;;;;;31.42;11.25;;;;;;;16.55;100.00;101719.91;5012776;28;20546;-75
2023/05/22 07:19:53;;;;;;;30.27;10.80;;;;;;;16.60;100.00;101726.66;5012876;28;20030;-74
2023/05/22 07:22:18;;;;;;;28.35;10.05;;;;;;;16.68;100.00;101737.47;5012840;28;20433;-75
2023/05/22 07:24:46;;;;;;;29.35;10.70;;;;;;;16.85;100.00;101744.63;5012676;28;20368;-75
2023/05/22 07:27:11;;;;;;;26.20;9.88;;;;;;;17.13;100.00;101736.41;5013056;28;20088;-75
2023/05/22 07:29:37;;;;;;;24.10;10.07;;;;;;;17.18;100.00;101754.75;5012373;28;20070;-76
2023/05/22 07:32:02;;;;;;;22.00;9.75;;;;;;;17.19;100.00;101749.22;5012962;28;20048;-79
2023/05/22 07:34:31;;;;;;;28.50;9.82;;;;;;;17.25;100.00;101756.63;5012272;28;20551;-78
2023/05/22 07:36:57;;;;;;;26.90;10.05;;;;;;;17.23;100.00;101760.50;5013052;28;20478;-77
2023/05/22 07:39:23;;;;;;;23.73;8.45;;;;;;;17.15;100.00;101744.31;5024431;28;20064;-77
2023/05/22 07:41:51;;;;;;;24.35;8.95;;;;;;;17.16;100.00;101746.84;5030014;28;20040;-79
2023/05/22 07:44:16;;;;;;;23.50;9.60;;;;;;;17.20;100.00;101753.59;5034962;28;20049;-79
2023/05/22 07:46:42;;;;;;;23.10;8.98;;;;;;;16.95;100.00;101754.47;5034860;28;20049;-77
2023/05/22 07:49:08;;;;;;;25.17;8.80;;;;;;;16.79;100.00;101744.44;5035271;28;20041;-78
2023/05/22 07:51:33;;;;;;;26.00;9.70;;;;;;;16.74;100.00;101739.53;5034386;28;20033;-74
2023/05/22 07:53:58;;;;;;;27.02;9.52;;;;;;;16.65;100.00;101746.69;5034976;28;20472;-78
2023/05/22 07:56:26;;;;;;;28.40;10.00;;;;;;;16.47;100.00;101748.56;5034774;28;20048;-78
2023/05/22 07:58:51;;;;;;;25.65;9.85;;;;;;;16.41;100.00;101752.72;5035025;28;20041;-77
2023/05/22 08:01:17;;;;;;;24.13;10.50;;;;;;;16.38;100.00;101748.50;5035054;28;20037;-78
2023/05/22 08:03:42;;;;;;;26.88;10.95;;;;;;;16.38;100.00;101743.13;5034394;28;20081;-78
2023/05/22 08:06:08;;;;;;;27.17;10.90;;;;;;;16.34;100.00;101743.59;5034926;28;20080;-77
2023/05/22 08:08:33;;;;;;;25.83;10.13;;;;;;;16.33;100.00;101734.69;5034435;28;20393;-77
2023/05/22 08:10:59;;;;;;;23.48;9.38;;;;;;;16.51;100.00;101739.19;5034800;28;20064;-77
2023/05/22 08:13:24;;;;;;;33.63;10.13;;;;;;;16.80;100.00;101741.59;5034283;28;20033;-77
2023/05/22 08:15:50;;;;;;;32.03;9.20;;;;;;;17.19;100.00;101734.94;5034004;28;20478;-77
2023/05/22 08:18:16;;;;;;;25.13;9.73;;;;;;;17.54;100.00;101733.91;5034596;28;20439;-77
2023/05/22 08:20:41;;;;;;;31.88;9.68;;;;;;;17.84;100.00;101728.06;5034126;28;20033;-77
2023/05/22 08:23:07;;;;;;;21.10;8.80;;;;;;;18.17;100.00;101736.22;5034177;28;20421;-77
2023/05/22 08:25:32;;;;;;;26.73;9.20;;;;;;;18.33;100.00;101736.22;5033929;28;20048;-77
2023/05/22 08:27:57;;;;;;;22.83;10.90;;;;;;;18.64;100.00;101740.94;5033341;28;20033;-77
2023/05/22 08:30:23;;;;;;;20.13;9.05;;;;;;;18.92;100.00;101729.81;5034462;28;20095;-77
2023/05/22 08:32:48;;;;;;;20.55;8.68;;;;;;;19.11;100.00;101733.94;5033723;28;20469;-76
2023/05/22 08:35:14;;;;;;;25.83;9.77;;;;;;;19.29;100.00;101731.88;5034342;28;20039;-76
2023/05/22 08:37:40;;;;;;;24.20;9.35;;;;;;;19.41;100.00;101726.91;5033799;28;20029;-77
2023/05/22 08:40:10;;;;;;;28.20;9.60;;;;;;;19.36;100.00;101722.06;5033738;28;20124;-79
2023/05/22 08:42:35;;;;;;;23.52;9.40;;;;;;;19.53;100.00;101724.66;5033927;28;20044;-78
2023/05/22 08:45:01;;;;;;;22.35;9.07;;;;;;;19.79;100.00;101713.56;5034049;28;20045;-80
2023/05/22 08:47:27;;;;;;;26.10;9.38;;;;;;;20.19;100.00;101718.84;5032945;28;20025;-78
2023/05/22 08:49:53;;;;;;;20.83;8.98;;;;;;;20.63;100.00;101720.84;5032475;28;20033;-81
2023/05/22 08:52:29;;;;;;;21.98;8.32;;;;;;;20.86;100.00;101719.94;5034038;28;20083;-79
2023/05/22 08:54:55;;;;;;;19.77;8.48;;;;;;;21.06;100.00;101718.34;5033839;28;20495;-78
2023/05/22 08:57:22;;;;;;;18.95;7.82;;;;;;;21.19;100.00;101716.84;5034070;28;20025;-81
2023/05/22 08:59:48;;;;;;;20.85;8.98;;;;;;;21.48;100.00;101722.22;5033506;28;20030;-80
2023/05/22 09:02:15;;;;;;;28.13;10.05;;;;;;;21.64;100.00;101723.03;5033300;28;20059;-79
2023/05/22 09:04:41;;;;;;;22.67;8.88;;;;;;;21.96;100.00;101716.31;5033175;28;20057;-79
2023/05/22 09:07:07;;;;;;;22.23;9.13;;;;;;;22.27;100.00;101719.69;5033415;28;20130;-79
2023/05/22 09:09:37;;;;;;;23.15;8.90;;;;;;;22.75;100.00;101719.03;5033354;28;20033;-78
2023/05/22 09:12:05;;;;;;;19.10;9.05;;;;;;;23.07;100.00;101718.41;5033818;28;20034;-80
2023/05/22 09:14:40;;;;;;;18.10;8.40;;;;;;;23.40;100.00;101725.06;5033536;28;20025;-81
2023/05/22 09:17:07;;;;;;;22.35;10.10;;;;;;;23.47;100.00;101719.63;5033096;28;20132;-80
2023/05/22 09:19:32;;;;;;;22.60;9.25;;;;;;;23.41;98.29;101716.69;5033512;28;20385;-81
2023/05/22 09:22:05;;;;;;;21.25;8.70;;;;;;;23.93;96.35;101718.94;5033015;28;20117;-80
2023/05/22 09:24:31;;;;;;;24.10;8.82;;;;;;;24.08;91.52;101726.91;5033747;28;20125;-80
2023/05/22 09:26:58;;;;;;;25.20;8.98;;;;;;;23.87;87.72;101719.78;5032961;28;20377;-81
2023/05/22 09:29:24;;;;;;;21.83;8.55;;;;;;;23.71;89.24;101723.69;5033628;28;20033;-80
2023/05/22 09:31:49;;;;;;;23.58;9.50;;;;;;;23.90;94.96;101719.34;5033113;28;20349;-80
2023/05/22 09:34:16;;;;;;;22.17;9.93;;;;;;;24.19;88.78;101720.03;5033606;28;20029;-81
2023/05/22 09:36:42;;;;;;;18.02;8.98;;;;;;;24.05;81.55;101730.03;5032036;28;20116;-80
2023/05/22 09:39:08;;;;;;;24.83;9.32;;;;;;;23.98;89.46;101731.94;5032629;28;20071;-77
2023/05/22 09:41:36;;;;;;;22.13;9.30;;;;;;;24.16;84.78;101729.44;5033132;28;20116;-76
2023/05/22 09:44:15;;;;;;;17.13;9.15;;;;;;;24.49;79.76;101728.59;5032938;28;20033;-76
2023/05/22 09:46:42;;;;;;;27.08;10.32;;;;;;;24.67;77.96;101727.16;5032533;28;20116;-77
2023/05/22 09:49:08;;;;;;;23.73;9.43;;;;;;;24.90;75.42;101729.38;5033024;28;20040;-78
2023/05/22 09:51:36;;;;;;;17.05;8.52;;;;;;;24.93;74.99;101723.53;5032917;28;20033;-76
2023/05/22 09:54:07;;;;;;;20.10;10.40;;;;;;;25.06;73.04;101730.81;5032526;28;20025;-77
2023/05/22 09:56:34;;;;;;;;;;;;;;;25.14;73.41;101722.41;5033379;28;20082;-76
2023/05/22 09:59:00;;;;;;;19.98;9.65;;;;;;;25.19;76.02;101728.06;5032052;28;19909;-77
2023/05/22 10:01:26;;;;;;;20.33;8.25;;;;;;;25.36;70.07;101722.16;5032758;28;20095;-77
2023/05/22 10:03:54;;;;;;;23.00;11.13;;;;;;;25.28;72.64;101724.03;5032234;28;20030;-76
2023/05/22 10:06:21;;;;;;;18.92;8.65;;;;;;;25.45;70.65;101721.69;5032516;28;20374;-77
2023/05/22 10:08:52;;;;;;;23.67;9.52;;;;;;;25.48;70.02;101728.59;5032057;28;20033;-76
2023/05/22 10:11:18;;;;;;;20.73;8.48;;;;;;;25.71;67.93;101722.59;5032544;28;20057;-77
2023/05/22 10:13:46;;;;;;;20.20;10.00;;;;;;;25.53;66.57;101723.34;5030882;28;20120;-77
2023/05/22 10:16:14;;;;;;;20.42;8.60;;;;;;;25.29;67.46;101724.84;5032481;28;20152;-76
2023/05/22 10:18:44;;;;;;;23.45;9.27;;;;;;;25.08;70.29;101726.84;5032053;28;20038;-77
2023/05/22 10:21:11;;;;;;;20.27;9.48;;;;;;;25.39;75.11;101725.28;5032419;28;20032;-76
2023/05/22 10:23:37;;;;;;;20.70;7.97;;;;;;;25.41;71.61;101736.81;5032317;28;20120;-76
2023/05/22 10:26:04;;;;;;;20.60;8.20;;;;;;;25.28;69.67;101728.66;5030505;28;20124;-77
2023/05/22 10:28:37;;;;;;;21.52;8.55;;;;;;;25.23;68.21;101723.84;5022699;28;20069;-78
2023/05/22 10:31:17;;;;;;;25.42;9.10;;;;;;;24.76;72.63;101732.13;5009883;28;20034;-78
2023/05/22 10:33:53;;;;;;;22.67;8.68;;;;;;;24.82;69.09;101731.28;5009995;28;20038;-77
2023/05/22 10:36:43;;;;;;;24.17;8.15;;;;;;;24.84;71.65;101728.34;5010145;28;20038;-79
2023/05/22 10:39:31;;;;;;;21.90;8.32;;;;;;;24.91;67.85;101731.06;5009701;28;20409;-78
2023/05/22 10:41:57;;;;;;;19.15;8.88;;;;;;;24.78;73.69;101732.78;5008185;28;20046;-77
2023/05/22 10:44:22;;;;;;;20.85;8.85;;;;;;;24.99;73.88;101730.81;5015635;28;20346;-78
2023/05/22 10:46:51;;;;;;;24.77;8.95;;;;;;;25.02;68.06;101724.97;5046795;28;20036;-79
2023/05/22 10:49:23;;;;;;;20.20;8.85;;;;;;;25.61;69.93;101720.34;5048982;28;20029;-78
2023/05/22 10:51:54;;;;;;;22.48;8.77;;;;;;;26.20;65.67;101717.47;5044091;28;20038;-77
2023/05/22 10:54:37;;;;;;;21.23;10.05;;;;;;;25.93;63.48;101712.19;5026032;28;20030;-76
2023/05/22 10:57:13;;;;;;;23.63;9.82;;;;;;;26.12;63.60;101713.09;5030262;28;20037;-76
2023/05/22 10:59:38;;;;;;;22.63;9.93;;;;;;;26.17;62.15;101710.56;5032161;28;20026;-77
2023/05/22 11:02:05;;;;;;;24.00;10.70;;;;;;;26.12;61.33;101717.72;5031530;28;20454;-77
2023/05/22 11:04:30;;;;;;;22.83;9.55;;;;;;;26.33;60.87;101711.06;5031998;28;20029;-77